createdAt,value
2023-04-19T00:02:13.293Z,101057.00
2023-04-19T00:04:40.513Z,101061.00
2023-04-19T00:07:07.690Z,101051.00
2023-04-19T00:09:34.542Z,101043.00
2023-04-19T00:12:01.512Z,101032.00
2023-04-19T00:14:28.634Z,101022.00
2023-04-19T00:16:55.656Z,101034.00
2023-04-19T00:19:23.292Z,101019.00
2023-04-19T00:21:50.350Z,101032.00
2023-04-19T00:24:18.015Z,101031.00
2023-04-19T00:26:44.906Z,101037.00
2023-04-19T00:29:11.748Z,101040.00
2023-04-19T00:31:39.924Z,101039.00
2023-04-19T00:34:07.178Z,101039.00
2023-04-19T00:36:34.171Z,101044.00
2023-04-19T00:39:01.069Z,101034.00
2023-04-19T00:41:27.937Z,101041.00
2023-04-19T00:43:55.029Z,101037.00
2023-04-19T00:46:23.071Z,101000.00
2023-04-19T00:48:50.647Z,101033.00
2023-04-19T00:51:17.720Z,101031.00
2023-04-19T00:53:44.909Z,101034.00
2023-04-19T00:56:14.640Z,101002.00
2023-04-19T00:58:41.683Z,101039.00
2023-04-19T01:01:08.585Z,101043.00
2023-04-19T01:03:36.600Z,101035.00
2023-04-19T01:06:03.954Z,101040.00
2023-04-19T01:08:30.918Z,101044.00
2023-04-19T01:10:57.847Z,101045.00
2023-04-19T01:13:25.062Z,101044.00
2023-04-19T01:15:52.117Z,101044.00
2023-04-19T01:18:19.490Z,101038.00
2023-04-19T01:20:46.458Z,101034.00
2023-04-19T01:23:13.511Z,101039.00
2023-04-19T01:25:40.415Z,101030.00
2023-04-19T01:28:07.283Z,101025.00
2023-04-19T01:30:36.419Z,101022.00
2023-04-19T01:33:03.566Z,101017.00
2023-04-19T01:35:30.454Z,101024.00
2023-04-19T01:37:57.399Z,101017.00
2023-04-19T01:40:25.835Z,101004.00
2023-04-19T01:42:53.534Z,101022.00
2023-04-19T01:45:20.741Z,101021.00
2023-04-19T01:47:47.677Z,101025.00
2023-04-19T01:50:14.546Z,101017.00
2023-04-19T01:52:41.493Z,100922.00
2023-04-19T01:55:08.932Z,101011.00
2023-04-19T01:57:35.827Z,100999.00
2023-04-19T02:00:03.152Z,101004.00
2023-04-19T02:02:30.272Z,101001.00
2023-04-19T02:04:58.126Z,100998.00
2023-04-19T02:07:25.057Z,101005.00
2023-04-19T02:09:51.987Z,100995.00
2023-04-19T02:12:19.004Z,100999.00
2023-04-19T02:14:45.950Z,101007.00
2023-04-19T02:17:12.885Z,101024.00
2023-04-19T02:19:39.768Z,101006.00
2023-04-19T02:22:06.689Z,101003.00
2023-04-19T02:24:33.574Z,101004.00
2023-04-19T02:27:00.832Z,101003.00
2023-04-19T02:29:27.994Z,100995.00
2023-04-19T02:31:54.854Z,100992.00
2023-04-19T02:34:21.781Z,100990.00
2023-04-19T02:50:07.809Z,100985.00
2023-04-19T02:52:34.707Z,100981.00
2023-04-19T02:55:01.618Z,100980.00
2023-04-19T02:57:28.490Z,100973.00
2023-04-19T02:59:55.432Z,100966.00
2023-04-19T03:02:22.368Z,100974.00
2023-04-19T03:04:49.267Z,100968.00
2023-04-19T03:07:16.346Z,100965.00
2023-04-19T03:09:43.500Z,100957.00
2023-04-19T03:12:10.424Z,100948.00
2023-04-19T03:14:37.403Z,100936.00
2023-04-19T03:17:04.249Z,100938.00
2023-04-19T03:19:31.214Z,100935.00
2023-04-19T03:21:58.153Z,100933.00
2023-04-19T03:24:29.664Z,100924.00
2023-04-19T03:26:57.393Z,100934.00
2023-04-19T03:29:24.331Z,100934.00
2023-04-19T03:31:51.239Z,100924.00
2023-04-19T03:34:18.217Z,100915.00
2023-04-19T03:36:45.140Z,100917.00
2023-04-19T03:39:12.088Z,100916.00
2023-04-19T03:41:40.930Z,100914.00
2023-04-19T03:44:07.858Z,100904.00
2023-04-19T03:46:34.732Z,100896.00
2023-04-19T03:49:01.993Z,100882.00
2023-04-19T03:51:28.924Z,100903.00
2023-04-19T03:53:55.766Z,100903.00
2023-04-19T03:56:22.745Z,100894.00
2023-04-19T03:58:51.827Z,100887.00
2023-04-19T04:01:21.259Z,100883.00
2023-04-19T04:03:48.598Z,100882.00
2023-04-19T04:06:16.158Z,100868.00
2023-04-19T04:08:43.056Z,100884.00
2023-04-19T04:11:10.023Z,100898.00
2023-04-19T04:13:37.420Z,100901.00
2023-04-19T04:16:04.831Z,100900.00
2023-04-19T04:18:32.156Z,100901.00
2023-04-19T04:20:59.130Z,100897.00
2023-04-19T04:23:26.036Z,100906.00
2023-04-19T04:26:05.224Z,100902.00
2023-04-19T04:28:32.267Z,100895.00
2023-04-19T04:31:00.272Z,100898.00
2023-04-19T04:33:28.622Z,100888.00
2023-04-19T04:35:57.789Z,100863.00
2023-04-19T04:38:25.323Z,100887.00
2023-04-19T04:40:56.304Z,100893.00
2023-04-19T04:43:25.969Z,100869.00
2023-04-19T04:45:55.741Z,100896.00
2023-04-19T04:48:22.786Z,100900.00
2023-04-19T04:50:49.932Z,100883.00
2023-04-19T04:53:16.891Z,100871.00
2023-04-19T04:55:43.846Z,100901.00
2023-04-19T04:58:10.827Z,100902.00
2023-04-19T05:00:37.731Z,100902.00
2023-04-19T05:03:04.876Z,100876.00
2023-04-19T05:05:32.040Z,100900.00
2023-04-19T05:07:59.334Z,100897.00
2023-04-19T05:10:26.327Z,100893.00
2023-04-19T05:12:53.262Z,100899.00
2023-04-19T05:15:20.397Z,100895.00
2023-04-19T05:17:47.337Z,100887.00
2023-04-19T05:20:14.414Z,100883.00
2023-04-19T05:22:41.509Z,100887.00
2023-04-19T05:25:10.261Z,100892.00
2023-04-19T05:27:37.178Z,100894.00
2023-04-19T05:30:06.647Z,100878.00
2023-04-19T05:32:33.854Z,100878.00
2023-04-19T05:35:00.982Z,100876.00
2023-04-19T05:37:27.929Z,100883.00
2023-04-19T05:39:54.918Z,100877.00
2023-04-19T05:42:21.839Z,100882.00
2023-04-19T05:44:48.704Z,100882.00
2023-04-19T05:47:17.451Z,100869.00
2023-04-19T05:49:44.389Z,100876.00
2023-04-19T05:52:11.380Z,100874.00
2023-04-19T05:54:38.286Z,100860.00
2023-04-19T05:57:05.343Z,100846.00
2023-04-19T05:59:32.284Z,100860.00
2023-04-19T06:01:59.796Z,100851.00
2023-04-19T06:04:27.617Z,100869.00
2023-04-19T06:06:54.707Z,100856.00
2023-04-19T06:09:21.731Z,100850.00
2023-04-19T06:11:51.165Z,100827.00
2023-04-19T06:14:19.167Z,100851.00
2023-04-19T06:16:46.604Z,100851.00
2023-04-19T06:19:13.729Z,100853.00
2023-04-19T06:21:40.843Z,100859.00
2023-04-19T06:24:08.243Z,100860.00
2023-04-19T06:26:35.211Z,100868.00
2023-04-19T06:29:02.083Z,100869.00
2023-04-19T06:31:29.163Z,100871.00
2023-04-19T06:33:56.128Z,100872.00
2023-04-19T06:36:23.109Z,100869.00
2023-04-19T06:38:50.419Z,100872.00
2023-04-19T06:41:17.912Z,100867.00
2023-04-19T06:43:45.048Z,100865.00
2023-04-19T06:46:14.413Z,100862.00
2023-04-19T06:48:41.886Z,100858.00
2023-04-19T06:51:09.348Z,100866.00
2023-04-19T06:53:36.959Z,100859.00
2023-04-19T06:56:05.167Z,100851.00
2023-04-19T06:58:34.935Z,100867.00
2023-04-19T07:01:04.724Z,100869.00
2023-04-19T07:03:32.459Z,100866.00
2023-04-19T07:05:59.558Z,100861.00
2023-04-19T07:08:34.938Z,100869.00
2023-04-19T07:11:06.116Z,100863.00
2023-04-19T07:13:32.979Z,100867.00
2023-04-19T07:16:00.016Z,100864.00
2023-04-19T07:18:27.303Z,100863.00
2023-04-19T07:20:54.201Z,100860.00
2023-04-19T07:23:21.098Z,100853.00
2023-04-19T07:25:48.022Z,100847.00
2023-04-19T07:28:16.041Z,100851.00
2023-04-19T07:30:46.040Z,100833.00
2023-04-19T07:33:13.176Z,100854.00
2023-04-19T07:35:40.438Z,100843.00
2023-04-19T07:38:07.379Z,100849.00
2023-04-19T07:40:34.309Z,100837.00
2023-04-19T07:43:01.169Z,100844.00
2023-04-19T07:45:29.928Z,100826.00
2023-04-19T07:47:56.910Z,100826.00
2023-04-19T07:50:26.744Z,100815.00
2023-04-19T07:52:54.334Z,100811.00
2023-04-19T07:55:21.448Z,100818.00
2023-04-19T07:57:49.376Z,100817.00
2023-04-19T08:00:18.425Z,100818.00
2023-04-19T08:02:49.571Z,100818.00
2023-04-19T08:05:17.705Z,100809.00
2023-04-19T08:07:46.043Z,100796.00
2023-04-19T08:10:13.207Z,100812.00
2023-04-19T08:12:50.333Z,100814.00
2023-04-19T08:17:57.326Z,100812.00
2023-04-19T08:20:24.323Z,100813.00
2023-04-19T08:22:51.370Z,100824.00
2023-04-19T08:25:18.356Z,100815.00
2023-04-19T08:27:45.252Z,100826.00
2023-04-19T08:30:12.776Z,100829.00
2023-04-19T08:32:39.714Z,100828.00
2023-04-19T08:35:08.373Z,100835.00
2023-04-19T08:37:35.407Z,100833.00
2023-04-19T08:40:03.808Z,100816.00
2023-04-19T08:42:36.939Z,100838.00
2023-04-19T08:47:42.184Z,100830.00
2023-04-19T08:50:31.250Z,100848.00
2023-04-19T08:55:33.809Z,100844.00
2023-04-19T08:58:04.318Z,100845.00
2023-04-19T09:00:37.915Z,100839.00
2023-04-19T09:03:08.944Z,100819.00
2023-04-19T09:05:36.294Z,100858.00
2023-04-19T09:08:29.575Z,100853.00
2023-04-19T09:11:01.918Z,100839.00
2023-04-19T09:13:30.267Z,100858.00
2023-04-19T09:15:58.161Z,100843.00
2023-04-19T09:18:25.302Z,100849.00
2023-04-19T09:20:58.957Z,100844.00
2023-04-19T09:23:28.734Z,100854.00
2023-04-19T09:28:29.373Z,100844.00
2023-04-19T09:31:03.492Z,100827.00
2023-04-19T09:33:41.706Z,100823.00
2023-04-19T09:36:09.374Z,100829.00
2023-04-19T09:38:51.893Z,100836.00
2023-04-19T09:41:19.066Z,100808.00
2023-04-19T09:44:02.276Z,100818.00
2023-04-19T09:46:37.721Z,100819.00
2023-04-19T09:49:22.905Z,100802.00
2023-04-19T09:51:56.683Z,100790.00
2023-04-19T09:54:25.625Z,100790.00
2023-04-19T09:56:54.172Z,100801.00
2023-04-19T09:59:23.743Z,100806.00
2023-04-19T10:02:00.979Z,100803.00
2023-04-19T10:04:38.351Z,100821.00
2023-04-19T10:09:54.232Z,100788.00
2023-04-19T10:15:00.020Z,100801.00
2023-04-19T10:17:27.286Z,100801.00
2023-04-19T10:20:06.914Z,100790.00
2023-04-19T10:22:37.873Z,100798.00
2023-04-19T10:25:13.431Z,100802.00
2023-04-19T10:27:46.830Z,100797.00
2023-04-19T10:30:22.854Z,100779.00
2023-04-19T10:32:59.158Z,100793.00
2023-04-19T10:35:37.355Z,100783.00
2023-04-19T10:38:16.502Z,100781.00
2023-04-19T10:40:52.898Z,100789.00
2023-04-19T10:43:21.168Z,100801.00
2023-04-19T10:45:48.680Z,100803.00
2023-04-19T10:48:30.911Z,100802.00
2023-04-19T10:51:11.159Z,100807.00
2023-04-19T10:53:57.502Z,100798.00
2023-04-19T10:56:33.515Z,100780.00
2023-04-19T10:59:11.108Z,100778.00
2023-04-19T11:01:47.949Z,100779.00
2023-04-19T11:04:33.016Z,100793.00
2023-04-19T11:07:07.972Z,100809.00
2023-04-19T11:09:45.179Z,100809.00
2023-04-19T11:12:18.118Z,100800.00
2023-04-19T11:14:53.276Z,100810.00
2023-04-19T11:17:27.193Z,100807.00
2023-04-19T11:20:02.714Z,100803.00
2023-04-19T11:22:38.134Z,100804.00
2023-04-19T11:25:20.690Z,100816.00
2023-04-19T11:27:53.660Z,100811.00
2023-04-19T11:30:30.830Z,100813.00
2023-04-19T11:32:58.744Z,100802.00
2023-04-19T11:35:28.620Z,100803.00
2023-04-19T11:37:58.626Z,100803.00
2023-04-19T11:40:27.067Z,100800.00
2023-04-19T11:43:05.075Z,100798.00
2023-04-19T11:46:03.248Z,100795.00
2023-04-19T11:48:30.897Z,100793.00
2023-04-19T11:51:00.587Z,100798.00
2023-04-19T11:53:29.744Z,100803.00
2023-04-19T11:56:03.535Z,100792.00
2023-04-19T11:58:45.049Z,100806.00
2023-04-19T12:01:19.635Z,100792.00
2023-04-19T12:03:51.342Z,100790.00
2023-04-19T12:06:33.501Z,100800.00
2023-04-19T12:09:00.652Z,100794.00
2023-04-19T12:11:50.242Z,100788.00
2023-04-19T12:14:23.838Z,100805.00
2023-04-19T12:17:16.758Z,100796.00
2023-04-19T12:19:47.442Z,100800.00
2023-04-19T12:22:24.227Z,100801.00
2023-04-19T12:24:55.928Z,100797.00
2023-04-19T12:27:22.897Z,100798.00
2023-04-19T12:29:49.854Z,100793.00
2023-04-19T12:32:16.976Z,100803.00
2023-04-19T12:34:44.137Z,100800.00
2023-04-19T12:37:11.116Z,100802.00
2023-04-19T12:39:38.114Z,100809.00
2023-04-19T12:42:06.251Z,100808.00
2023-04-19T12:44:33.269Z,100812.00
2023-04-19T12:47:00.219Z,100804.00
2023-04-19T12:49:27.315Z,100797.00
2023-04-19T12:51:55.917Z,100800.00
2023-04-19T12:54:24.093Z,100801.00
2023-04-19T12:56:50.991Z,100809.00
2023-04-19T12:59:18.424Z,100800.00
2023-04-19T13:01:45.761Z,100798.00
2023-04-19T13:04:12.915Z,100784.00
2023-04-19T13:06:40.937Z,100783.00
2023-04-19T13:09:14.285Z,100775.00
2023-04-19T13:11:42.310Z,100775.00
2023-04-19T13:14:09.685Z,100773.00
2023-04-19T13:16:36.915Z,100770.00
2023-04-19T13:19:03.902Z,100783.00
2023-04-19T13:21:31.324Z,100782.00
2023-04-19T13:24:01.366Z,100783.00
2023-04-19T13:26:29.945Z,100780.00
2023-04-19T13:28:56.878Z,100757.00
2023-04-19T13:31:23.935Z,100772.00
2023-04-19T13:33:51.180Z,100781.00
2023-04-19T13:36:18.300Z,100794.00
2023-04-19T13:38:46.306Z,100805.00
2023-04-19T13:41:13.384Z,100797.00
2023-04-19T13:43:40.492Z,100808.00
2023-04-19T13:46:07.478Z,100807.00
2023-04-19T13:48:34.449Z,100814.00
2023-04-19T13:51:01.429Z,100821.00
2023-04-19T13:53:29.251Z,100825.00
2023-04-19T13:55:56.841Z,100828.00
2023-04-19T13:58:26.842Z,100795.00
2023-04-19T14:00:54.500Z,100820.00
2023-04-19T14:03:24.328Z,100826.00
2023-04-19T14:05:51.642Z,100834.00
2023-04-19T14:08:18.726Z,100833.00
2023-04-19T14:10:45.904Z,100822.00
2023-04-19T14:13:13.163Z,100825.00
2023-04-19T14:15:40.615Z,100823.00
2023-04-19T14:18:07.963Z,100822.00
2023-04-19T14:20:35.384Z,100824.00
2023-04-19T14:23:02.669Z,100823.00
2023-04-19T14:25:30.158Z,100820.00
2023-04-19T14:27:58.826Z,100826.00
2023-04-19T14:30:26.846Z,100815.00
2023-04-19T14:32:54.768Z,100825.00
2023-04-19T14:35:22.210Z,100827.00
2023-04-19T14:37:49.274Z,100826.00
2023-04-19T14:40:18.113Z,100825.00
2023-04-19T14:42:45.313Z,100831.00
2023-04-19T14:45:12.602Z,100824.00
2023-04-19T14:47:39.902Z,100830.00
2023-04-19T14:50:07.892Z,100823.00
2023-04-19T14:52:35.767Z,100817.00
2023-04-19T14:55:03.366Z,100818.00
2023-04-19T14:57:31.353Z,100822.00
2023-04-19T14:59:58.739Z,100816.00
2023-04-19T15:02:26.070Z,100818.00
2023-04-19T15:04:54.208Z,100803.00
2023-04-19T15:07:21.937Z,100817.00
2023-04-19T15:09:49.775Z,100830.00
2023-04-19T15:12:17.177Z,100829.00
2023-04-19T15:14:45.880Z,100829.00
2023-04-19T15:17:14.239Z,100836.00
2023-04-19T15:19:42.702Z,100829.00
2023-04-19T15:22:10.007Z,100829.00
2023-04-19T15:24:37.379Z,100837.00
2023-04-19T15:27:05.530Z,100844.00
2023-04-19T15:29:32.545Z,100834.00
2023-04-19T15:31:59.614Z,100846.00
2023-04-19T15:34:27.473Z,100846.00
2023-04-19T15:36:54.615Z,100834.00
2023-04-19T15:39:23.465Z,100836.00
2023-04-19T15:41:50.795Z,100838.00
2023-04-19T15:44:18.024Z,100838.00
2023-04-19T15:46:45.029Z,100843.00
2023-04-19T15:49:12.508Z,100838.00
2023-04-19T15:51:39.674Z,100844.00
2023-04-19T15:54:07.031Z,100830.00
2023-04-19T15:56:34.247Z,100829.00
2023-04-19T15:59:01.369Z,100821.00
2023-04-19T16:01:28.485Z,100827.00
2023-04-19T16:03:59.013Z,100833.00
2023-04-19T16:06:27.581Z,100818.00
2023-04-19T16:08:54.648Z,100828.00
2023-04-19T16:11:23.238Z,100830.00
2023-04-19T16:13:50.837Z,100825.00
2023-04-19T16:16:19.020Z,100819.00
2023-04-19T16:18:47.102Z,100825.00
2023-04-19T16:21:14.384Z,100835.00
2023-04-19T16:23:42.269Z,100829.00
2023-04-19T16:26:09.435Z,100824.00
2023-04-19T16:28:36.652Z,100828.00
2023-04-19T16:31:04.145Z,100827.00
2023-04-19T16:33:31.466Z,100823.00
2023-04-19T16:35:58.812Z,100825.00
2023-04-19T16:38:27.206Z,100824.00
2023-04-19T16:40:55.926Z,100821.00
2023-04-19T16:43:23.815Z,100824.00
2023-04-19T16:45:50.968Z,100822.00
2023-04-19T16:48:18.377Z,100825.00
2023-04-19T16:50:45.689Z,100812.00
2023-04-19T16:53:12.948Z,100817.00
2023-04-19T16:55:40.356Z,100825.00
2023-04-19T16:58:07.479Z,100819.00
2023-04-19T17:00:35.352Z,100817.00
2023-04-19T17:03:02.782Z,100809.00
2023-04-19T17:05:30.130Z,100816.00
2023-04-19T17:07:58.819Z,100830.00
2023-04-19T17:10:27.774Z,100813.00
2023-04-19T17:12:55.930Z,100816.00
2023-04-19T17:15:23.359Z,100816.00
2023-04-19T17:17:51.788Z,100815.00
2023-04-19T17:20:19.279Z,100820.00
2023-04-19T17:22:46.657Z,100819.00
2023-04-19T17:25:14.681Z,100823.00
2023-04-19T17:27:42.394Z,100823.00
2023-04-19T17:30:10.123Z,100826.00
2023-04-19T17:32:37.479Z,100831.00
2023-04-19T17:35:07.074Z,100829.00
2023-04-19T17:37:34.452Z,100826.00
2023-04-19T17:40:04.446Z,100822.00
2023-04-19T17:42:34.955Z,100829.00
2023-04-19T17:45:06.376Z,100844.00
2023-04-19T17:47:33.717Z,100852.00
2023-04-19T17:50:13.549Z,100862.00
2023-04-19T17:52:41.038Z,100884.00
2023-04-19T17:55:08.967Z,100889.00
2023-04-19T17:57:36.242Z,100916.00
2023-04-19T18:00:08.005Z,100946.00
2023-04-19T18:02:38.318Z,100952.00
2023-04-19T18:05:06.510Z,100966.00
2023-04-19T18:07:39.918Z,100971.00
2023-04-19T18:10:09.057Z,100969.00
2023-04-19T18:12:37.707Z,100958.00
2023-04-19T18:15:07.909Z,100949.00
2023-04-19T18:17:36.661Z,100947.00
2023-04-19T18:20:08.353Z,100958.00
2023-04-19T18:22:38.016Z,100959.00
2023-04-19T18:25:06.383Z,100940.00
2023-04-19T18:27:35.394Z,100943.00
2023-04-19T18:30:04.356Z,100954.00
2023-04-19T18:32:33.181Z,100943.00
2023-04-19T18:35:06.695Z,100949.00
2023-04-19T18:37:34.149Z,100944.00
2023-04-19T18:40:05.618Z,100930.00
2023-04-19T18:42:35.533Z,100922.00
2023-04-19T18:45:05.452Z,100906.00
2023-04-19T18:47:35.242Z,100867.00
2023-04-19T18:50:05.232Z,100847.00
2023-04-19T18:52:39.128Z,100846.00
2023-04-19T18:55:08.833Z,100844.00
2023-04-19T18:57:38.783Z,100835.00
2023-04-19T19:00:18.159Z,100846.00
2023-04-19T19:02:54.591Z,100833.00
2023-04-19T19:05:23.186Z,100820.00
2023-04-19T19:07:51.320Z,100835.00
2023-04-19T19:10:26.628Z,100851.00
2023-04-19T19:13:14.695Z,100854.00
2023-04-19T19:15:43.943Z,100871.00
2023-04-19T19:18:11.308Z,100852.00
2023-04-19T19:20:42.050Z,100848.00
2023-04-19T19:23:10.128Z,100863.00
2023-04-19T19:25:40.602Z,100866.00
2023-04-19T19:28:11.524Z,100877.00
2023-04-19T19:30:45.950Z,100887.00
2023-04-19T19:33:15.266Z,100893.00
2023-04-19T19:35:46.120Z,100901.00
2023-04-19T19:38:16.605Z,100899.00
2023-04-19T19:43:23.019Z,100918.00
2023-04-19T19:45:51.796Z,100918.00
2023-04-19T19:48:19.609Z,100927.00
2023-04-19T19:51:17.396Z,100925.00
2023-04-19T19:53:34.760Z,100933.00
2023-04-19T19:56:04.008Z,100929.00
2023-04-19T19:58:46.356Z,100928.00
2023-04-19T20:01:22.472Z,100937.00
2023-04-19T20:03:52.041Z,100946.00
2023-04-19T20:08:56.255Z,100935.00
2023-04-19T20:11:23.773Z,100936.00
2023-04-19T20:13:51.110Z,100960.00
2023-04-19T20:16:18.881Z,100972.00
2023-04-19T20:18:46.637Z,100988.00
2023-04-19T20:21:15.167Z,100987.00
2023-04-19T20:23:42.970Z,100976.00
2023-04-19T20:26:12.996Z,100968.00
2023-04-19T20:28:41.889Z,100950.00
2023-04-19T20:31:09.332Z,100941.00
2023-04-19T20:33:36.648Z,100934.00
2023-04-19T20:36:04.009Z,100925.00
2023-04-19T20:38:32.719Z,100909.00
2023-04-19T20:41:01.447Z,100903.00
2023-04-19T20:43:28.661Z,100908.00
2023-04-19T20:45:55.827Z,100909.00
2023-04-19T20:48:24.153Z,100913.00
2023-04-19T20:50:51.583Z,100908.00
2023-04-19T20:53:21.747Z,100909.00
2023-04-19T20:55:48.777Z,100907.00
2023-04-19T20:58:16.022Z,100909.00
2023-04-19T21:00:43.527Z,100911.00
2023-04-19T21:03:11.095Z,100916.00
2023-04-19T21:05:38.212Z,100909.00
2023-04-19T21:08:05.530Z,100908.00
2023-04-19T21:10:32.517Z,100910.00
2023-04-19T21:12:59.477Z,100915.00
2023-04-19T21:15:26.921Z,100922.00
2023-04-19T21:17:53.914Z,100910.00
2023-04-19T21:20:20.946Z,100912.00
2023-04-19T21:22:48.641Z,100915.00
2023-04-19T21:25:16.363Z,100920.00
2023-04-19T21:27:43.403Z,100905.00
2023-04-19T21:30:11.481Z,100907.00
2023-04-19T21:32:38.705Z,100905.00
2023-04-19T21:35:07.364Z,100899.00
2023-04-19T21:37:37.223Z,100892.00
2023-04-19T21:40:05.134Z,100902.00
2023-04-19T21:42:32.184Z,100902.00
2023-04-19T21:44:59.102Z,100903.00
2023-04-19T21:47:26.100Z,100909.00
2023-04-19T21:49:53.608Z,100908.00
2023-04-19T21:52:23.186Z,100906.00
2023-04-19T21:54:50.234Z,100917.00
2023-04-19T21:57:21.827Z,100922.00
2023-04-19T21:59:48.815Z,100923.00
2023-04-19T22:02:18.916Z,100927.00
2023-04-19T22:04:45.866Z,100934.00
2023-04-19T22:07:12.887Z,100946.00
2023-04-19T22:09:43.162Z,100939.00
2023-04-19T22:12:11.524Z,100937.00
2023-04-19T22:14:38.561Z,100935.00
2023-04-19T22:17:05.955Z,100936.00
2023-04-19T22:19:32.844Z,100929.00
2023-04-19T22:21:59.761Z,100930.00
2023-04-19T22:24:26.670Z,100920.00
2023-04-19T22:26:53.527Z,100930.00
2023-04-19T22:29:20.526Z,100920.00
2023-04-19T22:31:47.468Z,100930.00
2023-04-19T22:34:14.448Z,100922.00
2023-04-19T22:36:41.429Z,100923.00
2023-04-19T22:39:09.051Z,100920.00
2023-04-19T22:41:35.973Z,100916.00
2023-04-19T22:44:03.408Z,100914.00
2023-04-19T22:46:30.550Z,100918.00
2023-04-19T22:48:57.909Z,100922.00
2023-04-19T22:51:24.826Z,100918.00
2023-04-19T22:53:51.795Z,100922.00
2023-04-19T22:56:18.786Z,100922.00
2023-04-19T22:58:45.819Z,100916.00
2023-04-19T23:01:12.950Z,100920.00
2023-04-19T23:03:39.954Z,100927.00
2023-04-19T23:06:07.966Z,100920.00
2023-04-19T23:08:35.436Z,100921.00
2023-04-19T23:11:02.305Z,100916.00
2023-04-19T23:13:29.204Z,100928.00
2023-04-19T23:15:56.104Z,100915.00
2023-04-19T23:18:23.667Z,100918.00
2023-04-19T23:20:50.565Z,100928.00
2023-04-19T23:23:17.489Z,100916.00
2023-04-19T23:25:44.371Z,100923.00
2023-04-19T23:28:12.619Z,100921.00
2023-04-19T23:30:39.762Z,100927.00
2023-04-19T23:33:06.784Z,100936.00
2023-04-19T23:35:33.792Z,100931.00
2023-04-19T23:38:00.731Z,100927.00
2023-04-19T23:40:27.670Z,100901.00
2023-04-19T23:42:54.727Z,100922.00
2023-04-19T23:45:21.805Z,100920.00
2023-04-19T23:47:48.737Z,100910.00
2023-04-19T23:50:15.716Z,100911.00
2023-04-19T23:52:42.570Z,100911.00
2023-04-19T23:55:09.994Z,100905.00
2023-04-19T23:57:36.891Z,100898.00
